Time;durP1;ratioP1;P1;durP2;ratioP2;P2;SDS_P1;SDS_P2;PMS_P1;PMS_P2;Temp;Humidity;BMP_temperature;BMP_pressure;BME280_temperature;BME280_humidity;BME280_pressure;Samples;Min_cycle;Max_cycle;Signal;HPM_P1;HPM_P2
2023/05/16 00:01:47;;;;;;;17.23;2.42;;;10.30;99.90;;;;;;5090230;28;20459;-74
2023/05/16 00:04:13;;;;;;;12.45;2.20;;;10.20;99.90;;;;;;5090841;28;20496;-74
2023/05/16 00:06:38;;;;;;;14.47;2.47;;;10.20;99.90;;;;;;5089449;28;20971;-74
2023/05/16 00:09:04;;;;;;;13.82;2.40;;;10.20;99.90;;;;;;5090904;28;20433;-74
2023/05/16 00:11:30;;;;;;;11.83;1.93;;;10.20;99.90;;;;;;5090036;28;20432;-74
2023/05/16 00:13:56;;;;;;;16.42;2.00;;;10.10;99.90;;;;;;5089713;28;20404;-74
2023/05/16 00:16:24;;;;;;;12.18;1.98;;;10.10;99.90;;;;;;5090290;28;20432;-74
2023/05/16 00:18:51;;;;;;;11.23;1.90;;;10.00;99.90;;;;;;5090501;28;20402;-74
2023/05/16 00:21:17;;;;;;;14.35;2.30;;;10.10;99.90;;;;;;5088685;28;20420;-74
2023/05/16 00:23:43;;;;;;;9.90;1.50;;;10.00;99.90;;;;;;5087942;28;20473;-74
2023/05/16 00:26:09;;;;;;;15.02;2.08;;;10.00;99.90;;;;;;5090185;28;20481;-74
2023/05/16 00:28:35;;;;;;;16.87;1.90;;;10.00;99.90;;;;;;5089051;28;20459;-74
2023/05/16 00:31:00;;;;;;;12.37;1.93;;;9.90;99.90;;;;;;5088591;28;20406;-74
2023/05/16 00:33:26;;;;;;;11.18;1.95;;;9.90;99.90;;;;;;5090031;28;20437;-74
2023/05/16 00:35:52;;;;;;;12.60;1.63;;;9.90;99.90;;;;;;5088660;28;20402;-74
2023/05/16 00:38:18;;;;;;;12.25;2.03;;;9.90;99.90;;;;;;5088805;28;20406;-74
2023/05/16 00:40:44;;;;;;;9.67;1.30;;;9.90;99.90;;;;;;5089742;28;20410;-74
2023/05/16 00:43:09;;;;;;;12.32;2.15;;;9.90;99.90;;;;;;5089066;28;20404;-74
2023/05/16 00:45:35;;;;;;;15.60;2.17;;;9.90;99.90;;;;;;5089571;28;20416;-74
2023/05/16 00:48:01;;;;;;;15.07;2.30;;;10.00;99.90;;;;;;5071976;28;20402;-74
2023/05/16 00:50:27;;;;;;;14.63;2.47;;;10.00;99.90;;;;;;5087969;28;20410;-74
2023/05/16 00:52:53;;;;;;;13.85;2.22;;;10.00;99.90;;;;;;5089737;28;20487;-74
2023/05/16 00:55:19;;;;;;;14.60;2.50;;;10.00;99.90;;;;;;5089440;28;20477;-74
2023/05/16 00:57:45;;;;;;;15.00;2.30;;;9.90;99.90;;;;;;5088410;28;20598;-74
2023/05/16 01:00:14;;;;;;;13.88;1.77;;;9.90;99.90;;;;;;5089213;28;20861;-74
2023/05/16 01:02:40;;;;;;;11.45;1.90;;;10.00;99.90;;;;;;5079002;28;20453;-74
2023/05/16 01:05:07;;;;;;;10.90;1.90;;;10.00;99.90;;;;;;5088356;28;20539;-74
2023/05/16 01:07:33;;;;;;;11.80;1.80;;;10.00;99.90;;;;;;5089510;28;20779;-73
2023/05/16 01:10:00;;;;;;;11.15;1.90;;;10.00;99.90;;;;;;5088011;28;20406;-74
2023/05/16 01:12:44;;;;;;;12.15;2.20;;;10.00;99.90;;;;;;5088219;28;20568;-74
2023/05/16 01:15:17;;;;;;;12.57;1.92;;;10.00;99.90;;;;;;5082820;28;20419;-74
2023/05/16 01:17:54;;;;;;;11.30;2.03;;;9.90;99.90;;;;;;5082956;28;20496;-74
2023/05/16 01:20:41;;;;;;;12.85;2.08;;;9.80;99.90;;;;;;5076974;28;20417;-74
2023/05/16 01:23:33;;;;;;;12.87;1.47;;;9.90;99.90;;;;;;5087642;28;20463;-74
2023/05/16 01:26:14;;;;;;;13.33;2.00;;;9.80;99.90;;;;;;5056276;28;20414;-74
2023/05/16 01:28:40;;;;;;;12.77;1.90;;;9.80;99.90;;;;;;5078370;28;20473;-74
2023/05/16 01:31:06;;;;;;;13.43;2.20;;;9.70;99.90;;;;;;5087239;28;20481;-74
2023/05/16 01:33:32;;;;;;;12.97;2.17;;;9.70;99.90;;;;;;5089049;28;20525;-74
2023/05/16 01:36:35;;;;;;;9.48;1.80;;;9.60;99.90;;;;;;5087146;28;20413;-74
2023/05/16 01:39:29;;;;;;;14.18;2.40;;;9.60;99.90;;;;;;5088740;28;20497;-75
2023/05/16 01:42:00;;;;;;;11.85;1.70;;;9.60;99.90;;;;;;5088784;28;20410;-74
2023/05/16 01:44:49;;;;;;;10.93;1.90;;;9.60;99.90;;;;;;5085854;28;20497;-74
2023/05/16 01:47:18;;;;;;;10.38;1.83;;;9.60;99.90;;;;;;5088893;28;20409;-74
2023/05/16 01:50:05;;;;;;;13.00;1.92;;;9.60;99.90;;;;;;5087279;28;20402;-74
2023/05/16 01:53:07;;;;;;;11.27;1.70;;;9.50;99.90;;;;;;5078910;28;20436;-74
2023/05/16 01:55:46;;;;;;;11.98;1.63;;;9.50;99.90;;;;;;5068567;28;20529;-74
2023/05/16 01:58:13;;;;;;;9.80;1.70;;;9.50;99.90;;;;;;5086906;28;20433;-74
2023/05/16 02:00:40;;;;;;;12.60;1.38;;;9.40;99.90;;;;;;5086883;28;20422;-74
2023/05/16 02:03:06;;;;;;;11.48;1.50;;;9.40;99.90;;;;;;5070008;28;20777;-74
2023/05/16 02:05:32;;;;;;;11.70;2.00;;;9.30;99.90;;;;;;5088137;28;20447;-74
2023/05/16 02:07:58;;;;;;;12.40;1.70;;;9.30;99.90;;;;;;5088725;28;20916;-74
2023/05/16 02:10:25;;;;;;;10.40;1.93;;;9.30;99.90;;;;;;5078393;28;20783;-74
2023/05/16 02:12:51;;;;;;;11.43;1.65;;;9.30;99.90;;;;;;5086894;28;20927;-74
2023/05/16 02:15:16;;;;;;;10.70;1.50;;;9.30;99.90;;;;;;5087739;28;20402;-74
2023/05/16 02:17:42;;;;;;;12.27;1.73;;;9.30;99.90;;;;;;5088051;28;20480;-74
2023/05/16 02:20:09;;;;;;;11.30;1.67;;;9.30;99.90;;;;;;5086919;28;20409;-74
2023/05/16 02:22:35;;;;;;;11.25;1.50;;;9.40;99.90;;;;;;5087313;28;20475;-74
2023/05/16 02:25:02;;;;;;;9.57;2.00;;;9.40;99.90;;;;;;5088494;28;20757;-74
2023/05/16 02:27:28;;;;;;;16.52;2.13;;;9.40;99.90;;;;;;5086792;28;20429;-74
2023/05/16 02:29:54;;;;;;;12.88;1.80;;;9.40;99.90;;;;;;5086599;28;20412;-74
2023/05/16 02:32:20;;;;;;;11.88;2.13;;;9.40;99.90;;;;;;5088112;28;20422;-73
2023/05/16 02:34:45;;;;;;;10.98;1.77;;;9.40;99.90;;;;;;5086509;28;20803;-74
2023/05/16 02:37:11;;;;;;;12.50;1.90;;;9.40;99.90;;;;;;5087784;28;20401;-74
2023/05/16 02:39:37;;;;;;;11.60;1.47;;;9.40;99.90;;;;;;5087926;28;20441;-74
2023/05/16 02:42:04;;;;;;;10.40;1.77;;;9.40;99.90;;;;;;5088186;28;20928;-74
2023/05/16 02:44:29;;;;;;;12.65;1.83;;;9.40;99.90;;;;;;5087663;28;20760;-74
2023/05/16 02:46:55;;;;;;;11.57;1.90;;;9.40;99.90;;;;;;5086255;28;20402;-74
2023/05/16 02:49:21;;;;;;;12.23;2.10;;;9.30;99.90;;;;;;5087677;28;20769;-74
2023/05/16 02:51:46;;;;;;;11.83;2.13;;;9.30;99.90;;;;;;5087619;28;20468;-74
2023/05/16 02:54:12;;;;;;;9.88;1.45;;;9.30;99.90;;;;;;5070016;28;20437;-74
2023/05/16 02:56:38;;;;;;;11.87;1.97;;;9.30;99.90;;;;;;5086209;28;20436;-74
2023/05/16 02:59:04;;;;;;;13.05;1.95;;;9.20;99.90;;;;;;5086222;28;21039;-74
2023/05/16 03:01:29;;;;;;;13.50;2.05;;;9.20;99.90;;;;;;5086452;28;20394;-74
2023/05/16 03:03:56;;;;;;;9.30;1.58;;;9.20;99.90;;;;;;5086608;28;20410;-74
2023/05/16 03:06:21;;;;;;;8.60;1.33;;;9.20;99.90;;;;;;5085855;28;20919;-74
2023/05/16 03:08:47;;;;;;;8.67;1.60;;;9.20;99.90;;;;;;5083048;28;20405;-74
2023/05/16 03:11:19;;;;;;;8.13;1.37;;;9.10;99.90;;;;;;5086448;28;20394;-74
2023/05/16 03:13:45;;;;;;;14.27;1.55;;;9.10;99.90;;;;;;5086226;28;20469;-74
2023/05/16 03:16:11;;;;;;;10.07;1.48;;;9.10;99.90;;;;;;5085772;28;20441;-74
2023/05/16 03:18:36;;;;;;;10.17;1.30;;;9.10;99.90;;;;;;5087071;28;20394;-74
2023/05/16 03:21:02;;;;;;;10.10;1.50;;;9.10;99.90;;;;;;5087465;28;20999;-74
2023/05/16 03:23:27;;;;;;;8.77;1.33;;;9.10;99.90;;;;;;5087598;28;20485;-74
2023/05/16 03:25:53;;;;;;;9.30;1.30;;;9.20;99.90;;;;;;5087599;28;20883;-74
2023/05/16 03:28:19;;;;;;;8.98;1.67;;;9.20;99.90;;;;;;5087410;28;20433;-74
2023/05/16 03:30:44;;;;;;;10.33;2.03;;;9.20;99.90;;;;;;5085737;28;20493;-74
2023/05/16 03:33:10;;;;;;;13.88;2.10;;;9.30;99.90;;;;;;5087749;28;20426;-74
2023/05/16 03:35:36;;;;;;;9.17;1.67;;;9.20;99.90;;;;;;5085897;28;20413;-74
2023/05/16 03:38:02;;;;;;;10.82;1.83;;;9.20;99.90;;;;;;5086005;28;20488;-74
2023/05/16 03:40:28;;;;;;;12.15;1.73;;;9.20;99.90;;;;;;5087060;28;20398;-74
2023/05/16 03:42:54;;;;;;;15.20;2.23;;;9.20;99.90;;;;;;5087213;28;20444;-74
2023/05/16 03:45:19;;;;;;;12.38;1.60;;;9.10;99.90;;;;;;5086947;28;20436;-74
2023/05/16 03:47:47;;;;;;;13.73;1.77;;;9.10;99.90;;;;;;5086951;28;20409;-74
2023/05/16 03:50:12;;;;;;;12.35;1.83;;;9.10;99.90;;;;;;5087562;28;20952;-74
2023/05/16 03:52:38;;;;;;;12.20;1.60;;;9.00;99.90;;;;;;5089148;28;20442;-74
2023/05/16 03:55:04;;;;;;;10.88;1.70;;;9.10;99.90;;;;;;5090716;28;20437;-74
2023/05/16 03:57:31;;;;;;;11.38;1.52;;;9.10;99.90;;;;;;5089882;28;20768;-74
2023/05/16 03:59:57;;;;;;;13.10;1.70;;;9.10;99.90;;;;;;5065337;28;20788;-74
2023/05/16 04:02:23;;;;;;;9.68;1.83;;;9.10;99.90;;;;;;5090392;28;20405;-74
2023/05/16 04:04:48;;;;;;;14.00;2.40;;;9.10;99.90;;;;;;5072338;28;20406;-74
2023/05/16 04:07:14;;;;;;;11.57;1.90;;;9.10;99.90;;;;;;5089390;28;20870;-74
2023/05/16 04:09:40;;;;;;;12.00;1.80;;;9.10;99.90;;;;;;5089903;28;20398;-74
2023/05/16 04:12:06;;;;;;;9.53;1.27;;;9.10;99.90;;;;;;5090634;28;20911;-74
2023/05/16 04:14:32;;;;;;;9.23;1.63;;;9.10;99.90;;;;;;5090167;28;20760;-74
2023/05/16 04:16:58;;;;;;;14.05;1.95;;;9.10;99.90;;;;;;5088763;28;20402;-74
2023/05/16 04:19:24;;;;;;;8.80;1.42;;;9.10;99.90;;;;;;5088999;28;20414;-74
2023/05/16 04:21:51;;;;;;;10.68;2.10;;;9.10;99.90;;;;;;5088702;28;20443;-74
2023/05/16 04:24:17;;;;;;;10.65;1.88;;;9.20;99.90;;;;;;5088648;28;20421;-74
2023/05/16 04:26:42;;;;;;;10.05;1.55;;;9.20;99.90;;;;;;5089223;28;20394;-74
2023/05/16 04:29:08;;;;;;;10.35;1.50;;;9.20;99.90;;;;;;5090130;28;20405;-74
2023/05/16 04:31:35;;;;;;;8.48;1.35;;;9.20;99.90;;;;;;5089856;28;20485;-74
2023/05/16 04:34:01;;;;;;;10.63;1.93;;;9.20;99.90;;;;;;5085213;28;20402;-74
2023/05/16 04:36:28;;;;;;;15.13;2.13;;;9.20;99.90;;;;;;5089957;28;20996;-74
2023/05/16 04:38:55;;;;;;;12.97;1.70;;;9.20;99.90;;;;;;5089810;28;20601;-74
2023/05/16 04:41:21;;;;;;;12.60;1.70;;;9.20;99.90;;;;;;5089945;28;20756;-74
2023/05/16 04:43:47;;;;;;;11.73;1.45;;;9.30;99.90;;;;;;5085398;28;20392;-74
2023/05/16 04:46:14;;;;;;;10.75;1.30;;;9.30;99.90;;;;;;5090111;28;20767;-74
2023/05/16 04:48:40;;;;;;;9.10;1.20;;;9.30;99.90;;;;;;5088941;28;20500;-74
2023/05/16 04:51:06;;;;;;;10.55;1.92;;;9.30;99.90;;;;;;5089928;28;20961;-74
2023/05/16 04:53:32;;;;;;;12.97;1.87;;;9.40;99.90;;;;;;5089677;28;20426;-74
2023/05/16 04:55:57;;;;;;;11.77;1.80;;;9.40;99.90;;;;;;5083492;28;20402;-74
2023/05/16 04:58:23;;;;;;;10.70;1.58;;;9.40;99.90;;;;;;5083509;28;20766;-74
2023/05/16 05:00:51;;;;;;;8.67;1.30;;;9.50;99.90;;;;;;5087235;28;20484;-74
2023/05/16 05:03:16;;;;;;;9.07;1.85;;;9.60;99.90;;;;;;5070554;28;20416;-74
2023/05/16 05:05:42;;;;;;;11.27;1.35;;;9.60;99.90;;;;;;5089482;28;20394;-74
2023/05/16 05:08:08;;;;;;;10.33;1.60;;;9.70;99.90;;;;;;5087409;28;20406;-74
2023/05/16 05:10:34;;;;;;;11.05;1.65;;;9.70;99.90;;;;;;5088951;28;20510;-74
2023/05/16 05:13:00;;;;;;;14.63;1.55;;;9.80;99.90;;;;;;5088535;28;20509;-74
2023/05/16 05:15:26;;;;;;;9.95;1.58;;;9.90;99.90;;;;;;5089215;28;20486;-74
2023/05/16 05:17:52;;;;;;;9.45;1.25;;;9.90;99.90;;;;;;5088761;28;20756;-74
2023/05/16 05:20:18;;;;;;;7.13;1.00;;;9.80;99.90;;;;;;5087525;28;20430;-74
2023/05/16 05:22:43;;;;;;;4.50;0.90;;;9.80;99.90;;;;;;5087269;28;20493;-72
2023/05/16 05:25:09;;;;;;;8.07;1.15;;;9.70;99.90;;;;;;5089083;28;20398;-71
2023/05/16 05:27:35;;;;;;;6.20;1.17;;;9.80;99.90;;;;;;5087851;28;20451;-73
2023/05/16 05:30:01;;;;;;;7.30;0.90;;;9.80;99.90;;;;;;5090817;28;20442;-74
2023/05/16 05:32:27;;;;;;;9.48;1.02;;;9.80;99.90;;;;;;5091581;28;20841;-74
2023/05/16 05:34:52;;;;;;;8.50;1.35;;;9.80;99.90;;;;;;5070791;28;20390;-74
2023/05/16 05:37:18;;;;;;;7.10;1.10;;;9.80;99.90;;;;;;5086903;28;20489;-74
2023/05/16 05:39:44;;;;;;;8.93;1.23;;;9.90;99.90;;;;;;5087522;28;20421;-74
2023/05/16 05:42:10;;;;;;;9.30;1.65;;;10.10;99.90;;;;;;5087542;28;20405;-74
2023/05/16 05:44:36;;;;;;;10.38;1.42;;;10.20;99.90;;;;;;5088688;28;20402;-74
2023/05/16 05:47:03;;;;;;;10.02;1.55;;;10.40;99.90;;;;;;5087791;28;20417;-74
2023/05/16 05:49:30;;;;;;;7.47;1.27;;;10.60;99.90;;;;;;5088585;28;20423;-74
2023/05/16 05:51:55;;;;;;;8.27;1.20;;;10.70;99.90;;;;;;5069985;28;20430;-74
2023/05/16 05:54:23;;;;;;;12.30;1.83;;;10.60;99.90;;;;;;5088442;28;20425;-74
2023/05/16 05:56:48;;;;;;;10.05;1.60;;;10.50;99.90;;;;;;5087743;28;20429;-74
2023/05/16 05:59:14;;;;;;;9.95;1.40;;;10.40;99.90;;;;;;5088430;28;20992;-74
2023/05/16 06:01:41;;;;;;;9.85;1.35;;;10.30;99.90;;;;;;5088119;28;20409;-74
2023/05/16 06:04:06;;;;;;;7.32;1.20;;;10.20;99.90;;;;;;5088096;28;20764;-74
2023/05/16 06:06:32;;;;;;;9.18;1.58;;;10.20;99.90;;;;;;5087935;28;20402;-74
2023/05/16 06:08:58;;;;;;;11.23;1.37;;;10.20;99.90;;;;;;5086487;28;20810;-75
2023/05/16 06:11:24;;;;;;;9.35;1.17;;;10.30;99.90;;;;;;5069593;28;20513;-74
2023/05/16 06:13:50;;;;;;;8.15;1.45;;;10.40;99.90;;;;;;5086195;28;20479;-75
2023/05/16 06:16:16;;;;;;;7.85;0.98;;;10.40;99.90;;;;;;5069806;28;20409;-74
2023/05/16 06:18:42;;;;;;;8.10;1.10;;;10.50;99.90;;;;;;5088087;28;20410;-74
2023/05/16 06:21:08;;;;;;;8.98;1.33;;;10.50;99.90;;;;;;5087330;28;20412;-74
2023/05/16 06:23:34;;;;;;;9.07;1.60;;;10.60;99.90;;;;;;5086497;28;20414;-74
2023/05/16 06:26:01;;;;;;;8.38;1.58;;;10.70;99.90;;;;;;5088153;28;20477;-74
2023/05/16 06:28:27;;;;;;;9.63;1.50;;;10.90;99.90;;;;;;5087177;28;20443;-74
2023/05/16 06:30:53;;;;;;;6.35;0.98;;;11.10;99.90;;;;;;5086262;28;20406;-75
2023/05/16 06:33:19;;;;;;;5.97;0.90;;;11.20;99.90;;;;;;5087701;28;20495;-74
2023/05/16 06:35:47;;;;;;;7.07;1.10;;;11.20;99.90;;;;;;5086642;28;20405;-74
2023/05/16 06:38:13;;;;;;;7.80;0.97;;;11.20;99.90;;;;;;5087322;28;20418;-74
2023/05/16 06:40:39;;;;;;;7.43;1.27;;;11.10;99.90;;;;;;5086250;28;20413;-74
2023/05/16 06:43:05;;;;;;;8.77;1.75;;;11.20;99.90;;;;;;5087301;28;21466;-75
2023/05/16 06:45:31;;;;;;;7.47;1.10;;;11.30;99.90;;;;;;5087839;28;20986;-74
2023/05/16 06:47:57;;;;;;;11.07;1.42;;;11.40;99.90;;;;;;5065996;28;20407;-74
2023/05/16 06:50:23;;;;;;;9.55;1.75;;;11.50;99.90;;;;;;5082827;28;20494;-74
2023/05/16 06:52:48;;;;;;;11.97;1.20;;;11.60;99.90;;;;;;5086847;28;20472;-74
2023/05/16 06:55:14;;;;;;;11.55;1.42;;;11.60;99.90;;;;;;5087602;28;20433;-74
2023/05/16 06:57:40;;;;;;;8.43;1.13;;;11.60;99.90;;;;;;5087428;28;20756;-74
2023/05/16 07:00:07;;;;;;;10.17;1.40;;;11.70;99.90;;;;;;5085557;28;20406;-74
2023/05/16 07:02:32;;;;;;;7.53;1.00;;;11.80;99.90;;;;;;5069307;28;20402;-74
2023/05/16 07:04:58;;;;;;;10.98;1.52;;;11.80;99.90;;;;;;5067073;28;20407;-74
2023/05/16 07:07:24;;;;;;;7.67;1.07;;;11.70;99.90;;;;;;5086121;28;20430;-75
2023/05/16 07:09:49;;;;;;;9.50;1.20;;;11.60;99.90;;;;;;5068136;28;20401;-75
2023/05/16 07:12:15;;;;;;;8.07;1.20;;;11.40;99.90;;;;;;5085143;28;20852;-74
2023/05/16 07:14:42;;;;;;;9.20;1.25;;;11.30;99.90;;;;;;5086496;28;20878;-74
2023/05/16 07:17:08;;;;;;;8.35;1.45;;;11.30;99.90;;;;;;5085174;28;20440;-74
2023/05/16 07:19:33;;;;;;;14.98;2.10;;;11.30;99.90;;;;;;5084756;28;20456;-74
2023/05/16 07:21:59;;;;;;;9.97;1.57;;;11.50;99.90;;;;;;5085215;28;20397;-74
2023/05/16 07:24:25;;;;;;;7.30;1.10;;;11.60;99.90;;;;;;5086898;28;20737;-74
2023/05/16 07:26:50;;;;;;;11.37;1.77;;;11.70;99.90;;;;;;5088756;28;20402;-74
2023/05/16 07:29:16;;;;;;;8.27;1.10;;;11.70;99.90;;;;;;5089488;28;20485;-74
2023/05/16 07:31:42;;;;;;;7.53;1.20;;;11.60;99.90;;;;;;5089665;28;20414;-74
2023/05/16 07:34:09;;;;;;;8.40;1.30;;;11.50;99.90;;;;;;5090342;28;20393;-74
2023/05/16 07:36:35;;;;;;;7.80;1.00;;;11.50;99.90;;;;;;5089588;28;20821;-74
2023/05/16 07:39:01;;;;;;;8.33;1.23;;;11.60;99.90;;;;;;5090600;28;20406;-74
2023/05/16 07:41:27;;;;;;;6.50;1.08;;;11.70;99.90;;;;;;5089308;28;20810;-74
2023/05/16 07:43:53;;;;;;;7.65;1.30;;;11.80;99.90;;;;;;5089499;28;20441;-74
2023/05/16 07:46:18;;;;;;;9.70;1.23;;;12.00;99.90;;;;;;5090502;28;20445;-75
2023/05/16 07:48:44;;;;;;;6.87;1.20;;;12.10;99.90;;;;;;5088762;28;20414;-74
2023/05/16 07:51:10;;;;;;;8.32;1.40;;;12.10;99.90;;;;;;5088982;28;20915;-74
2023/05/16 07:53:35;;;;;;;8.80;1.30;;;12.20;99.90;;;;;;5088772;28;20433;-74
2023/05/16 07:56:01;;;;;;;10.02;1.38;;;12.40;99.90;;;;;;5090739;28;20578;-74
2023/05/16 07:58:27;;;;;;;12.90;1.50;;;12.50;99.90;;;;;;5090208;28;20427;-74
2023/05/16 08:00:52;;;;;;;10.00;1.30;;;12.40;99.90;;;;;;5088894;28;20810;-75
2023/05/16 08:03:18;;;;;;;9.97;1.70;;;12.30;99.90;;;;;;5089902;28;20795;-74
2023/05/16 08:05:43;;;;;;;11.43;1.63;;;12.20;99.90;;;;;;5068722;28;20412;-74
2023/05/16 08:08:09;;;;;;;10.40;1.67;;;12.10;99.90;;;;;;5084128;28;20402;-74
2023/05/16 08:10:35;;;;;;;10.95;1.45;;;12.00;99.90;;;;;;5090310;28;20398;-75
2023/05/16 08:13:00;;;;;;;9.40;1.40;;;11.90;99.90;;;;;;5088396;28;20516;-74
2023/05/16 08:15:27;;;;;;;9.93;1.67;;;11.80;99.90;;;;;;5088713;28;20764;-74
2023/05/16 08:17:56;;;;;;;10.40;1.90;;;11.80;99.90;;;;;;5089058;28;20450;-74
2023/05/16 08:20:21;;;;;;;7.53;1.30;;;11.80;99.90;;;;;;5088121;28;20417;-75
2023/05/16 08:22:47;;;;;;;7.95;1.20;;;12.00;99.90;;;;;;5089826;28;20394;-75
2023/05/16 08:25:12;;;;;;;9.00;1.27;;;12.10;99.90;;;;;;5088864;28;20941;-74
2023/05/16 08:27:38;;;;;;;9.32;1.45;;;12.30;99.90;;;;;;5090439;28;20471;-75
2023/05/16 08:30:05;;;;;;;10.33;1.60;;;12.40;99.90;;;;;;5080102;28;20410;-74
2023/05/16 08:32:30;;;;;;;9.68;1.75;;;12.50;99.90;;;;;;5088863;28;20434;-74
2023/05/16 08:34:56;;;;;;;9.23;1.53;;;12.40;99.90;;;;;;5080694;28;20408;-75
2023/05/16 08:37:22;;;;;;;16.70;1.90;;;12.20;99.90;;;;;;5086670;28;20405;-74
2023/05/16 08:39:47;;;;;;;15.73;1.97;;;12.10;99.90;;;;;;5085340;28;20740;-74
2023/05/16 08:42:13;;;;;;;9.70;1.52;;;12.20;99.90;;;;;;5088899;28;20405;-75
2023/05/16 08:44:39;;;;;;;10.32;1.35;;;12.40;99.90;;;;;;5088402;28;20414;-74
2023/05/16 08:47:25;;;;;;;7.50;1.23;;;12.60;99.90;;;;;;5070893;28;21056;-75
2023/05/16 08:49:52;;;;;;;10.15;1.65;;;12.70;99.90;;;;;;5088156;28;20410;-74
2023/05/16 08:52:20;;;;;;;9.63;1.40;;;12.80;99.90;;;;;;5088368;28;20877;-74
2023/05/16 08:54:47;;;;;;;7.53;1.25;;;12.80;99.90;;;;;;5088256;28;20434;-74
2023/05/16 08:57:13;;;;;;;11.20;1.70;;;12.70;99.90;;;;;;5089406;28;20402;-74
2023/05/16 08:59:40;;;;;;;9.07;1.45;;;12.70;99.90;;;;;;5083397;28;20423;-74
2023/05/16 09:02:06;;;;;;;7.80;1.38;;;12.90;99.90;;;;;;5070857;28;20480;-75
2023/05/16 09:04:32;;;;;;;13.65;1.35;;;13.20;99.90;;;;;;5088772;28;20410;-74
2023/05/16 09:06:58;;;;;;;5.07;0.70;;;13.20;99.90;;;;;;5089141;28;20413;-75
2023/05/16 09:09:23;;;;;;;9.38;1.15;;;13.20;99.90;;;;;;5088169;28;20476;-75
2023/05/16 09:11:49;;;;;;;6.77;1.00;;;13.10;99.90;;;;;;5088907;28;20473;-74
2023/05/16 09:14:15;;;;;;;6.65;1.05;;;13.10;99.90;;;;;;5071280;28;20406;-75
2023/05/16 09:16:41;;;;;;;9.00;1.40;;;13.10;99.90;;;;;;5087720;28;20772;-74
2023/05/16 09:19:06;;;;;;;7.97;1.30;;;13.00;99.90;;;;;;5088927;28;20417;-75
2023/05/16 09:21:34;;;;;;;10.25;1.25;;;12.80;99.90;;;;;;5089386;28;20436;-75
2023/05/16 09:24:04;;;;;;;11.60;1.58;;;12.70;99.90;;;;;;5081598;28;21114;-74
2023/05/16 09:26:32;;;;;;;9.27;1.65;;;12.70;99.90;;;;;;5088842;28;20822;-74
2023/05/16 09:28:57;;;;;;;6.97;1.23;;;12.90;99.90;;;;;;5089408;28;20831;-74
2023/05/16 09:31:25;;;;;;;7.93;1.25;;;12.80;99.90;;;;;;5088676;28;20417;-75
2023/05/16 09:33:52;;;;;;;5.05;0.75;;;12.70;99.90;;;;;;5088634;28;20509;-74
2023/05/16 09:36:18;;;;;;;6.72;0.90;;;12.40;99.90;;;;;;5088032;28;20527;-74
2023/05/16 09:38:44;;;;;;;6.80;1.10;;;12.10;99.90;;;;;;5088710;28;20402;-74
2023/05/16 09:41:10;;;;;;;7.57;0.90;;;12.20;99.90;;;;;;5070453;28;20399;-75
2023/05/16 09:43:40;;;;;;;4.32;0.65;;;12.60;99.90;;;;;;5088205;28;20398;-75
2023/05/16 09:46:06;;;;;;;4.93;0.73;;;13.20;99.90;;;;;;5088561;28;20481;-75
2023/05/16 09:48:32;;;;;;;4.50;0.75;;;13.70;99.90;;;;;;5086399;28;20501;-75
2023/05/16 09:51:02;;;;;;;3.72;0.45;;;14.20;99.90;;;;;;5082597;28;20406;-75
2023/05/16 09:53:32;;;;;;;6.97;0.75;;;14.40;99.90;;;;;;5088499;28;20430;-75
2023/05/16 09:56:20;;;;;;;5.57;0.60;;;14.60;99.90;;;;;;5070638;28;20409;-75
2023/05/16 09:58:46;;;;;;;4.95;0.60;;;14.80;99.90;;;;;;5070003;28;20519;-75
2023/05/16 10:01:12;;;;;;;4.78;0.70;;;15.00;99.90;;;;;;5069950;28;20414;-75
2023/05/16 10:03:40;;;;;;;5.63;0.88;;;15.30;99.90;;;;;;5069937;28;20463;-75
2023/05/16 10:06:07;;;;;;;5.13;1.00;;;15.60;99.90;;;;;;5086844;28;20402;-75
2023/05/16 10:08:35;;;;;;;6.28;0.85;;;15.70;99.90;;;;;;5087924;28;20394;-75
2023/05/16 10:11:02;;;;;;;8.43;1.38;;;15.90;99.90;;;;;;5088132;28;20398;-75
2023/05/16 10:13:29;;;;;;;5.50;1.10;;;16.00;99.90;;;;;;5088479;28;20426;-75
2023/05/16 10:15:56;;;;;;;6.03;1.00;;;15.90;99.90;;;;;;5088536;28;20937;-75
2023/05/16 10:18:28;;;;;;;5.70;1.00;;;15.80;99.90;;;;;;5087573;28;20945;-75
2023/05/16 10:20:56;;;;;;;8.65;1.40;;;15.70;99.90;;;;;;5087258;28;20401;-75
2023/05/16 10:23:24;;;;;;;8.27;1.30;;;15.60;99.90;;;;;;5081774;28;20738;-75
2023/05/16 10:25:51;;;;;;;9.45;1.27;;;15.50;99.90;;;;;;5086168;28;20432;-75
2023/05/16 10:28:17;;;;;;;8.75;1.17;;;15.30;99.90;;;;;;5069355;28;20406;-75
2023/05/16 10:30:45;;;;;;;7.27;0.90;;;15.10;99.90;;;;;;5086848;28;20767;-75
2023/05/16 10:33:12;;;;;;;8.10;1.00;;;14.60;99.90;;;;;;5085790;28;20931;-75
2023/05/16 10:35:38;;;;;;;5.80;1.02;;;14.00;99.90;;;;;;5086225;28;20875;-74
2023/05/16 10:38:06;;;;;;;5.75;0.70;;;13.30;99.90;;;;;;5086883;28;20394;-74
2023/05/16 10:40:32;;;;;;;4.85;0.60;;;12.80;99.90;;;;;;5086500;28;20402;-75
2023/05/16 10:43:01;;;;;;;5.15;0.57;;;12.50;99.90;;;;;;5068970;28;20437;-74
2023/05/16 10:45:27;;;;;;;5.22;0.85;;;12.30;99.90;;;;;;5085427;28;20822;-75
2023/05/16 10:48:03;;;;;;;5.22;0.73;;;12.20;99.90;;;;;;5086514;28;20437;-75
2023/05/16 10:50:36;;;;;;;6.63;0.90;;;12.50;99.90;;;;;;5085637;28;20529;-75
2023/05/16 10:53:21;;;;;;;4.82;0.68;;;13.10;99.90;;;;;;5086450;28;20727;-75
2023/05/16 10:55:58;;;;;;;6.32;0.93;;;13.70;99.90;;;;;;5080223;28;20458;-75
2023/05/16 10:58:36;;;;;;;4.90;0.90;;;14.20;99.90;;;;;;5085015;28;20961;-75
2023/05/16 11:01:21;;;;;;;7.07;1.10;;;14.90;99.90;;;;;;5088936;28;20488;-75
2023/05/16 11:03:55;;;;;;;7.13;1.10;;;15.00;99.90;;;;;;5089057;28;20414;-75
2023/05/16 11:06:34;;;;;;;7.32;1.52;;;15.20;99.90;;;;;;5084636;28;20405;-75
2023/05/16 11:09:04;;;;;;;6.45;1.33;;;15.50;99.90;;;;;;5090857;28;21312;-75
2023/05/16 11:11:50;;;;;;;7.78;1.40;;;15.90;99.90;;;;;;5090566;28;20417;-75
2023/05/16 11:14:28;;;;;;;7.72;1.38;;;16.10;99.90;;;;;;5090931;28;20442;-75
2023/05/16 11:17:12;;;;;;;8.32;1.38;;;16.30;99.90;;;;;;5067354;28;21044;-75
2023/05/16 11:19:46;;;;;;;9.27;1.52;;;16.50;99.90;;;;;;5090555;28;20464;-75
2023/05/16 11:22:22;;;;;;;7.15;1.13;;;16.40;99.90;;;;;;5090344;28;21111;-75
2023/05/16 11:25:04;;;;;;;8.68;1.17;;;16.30;99.90;;;;;;5088948;28;20455;-75
2023/05/16 11:27:42;;;;;;;8.07;1.20;;;16.10;99.90;;;;;;5083680;28;20489;-75
2023/05/16 11:30:14;;;;;;;6.53;1.10;;;16.10;99.90;;;;;;5089206;28;20509;-75
2023/05/16 11:32:45;;;;;;;8.20;1.45;;;15.90;99.90;;;;;;5090274;28;20458;-75
2023/05/16 11:35:13;;;;;;;7.38;1.30;;;16.00;99.90;;;;;;5088317;28;20451;-75
2023/05/16 11:37:39;;;;;;;7.22;1.20;;;16.20;99.90;;;;;;5089101;28;20409;-75
2023/05/16 11:40:10;;;;;;;7.68;1.20;;;16.50;99.90;;;;;;5090402;28;20794;-75
2023/05/16 11:42:41;;;;;;;7.30;1.50;;;16.60;99.90;;;;;;5072361;28;21075;-75
2023/05/16 11:45:25;;;;;;;7.50;1.48;;;16.50;99.90;;;;;;5083547;28;20929;-75
2023/05/16 11:47:51;;;;;;;7.22;1.50;;;16.50;99.90;;;;;;5083078;28;21077;-75
2023/05/16 11:50:19;;;;;;;7.70;1.52;;;16.60;99.90;;;;;;5085639;28;20443;-75
2023/05/16 11:52:47;;;;;;;7.90;1.48;;;16.80;99.90;;;;;;5088684;28;20834;-75
2023/05/16 11:55:14;;;;;;;8.38;1.67;;;16.90;99.90;;;;;;5084226;28;20404;-75
2023/05/16 11:57:41;;;;;;;8.02;1.50;;;17.20;99.90;;;;;;5084201;28;20402;-75
2023/05/16 12:00:18;;;;;;;8.18;1.55;;;17.20;99.40;;;;;;5089648;28;20835;-75
2023/05/16 12:02:48;;;;;;;6.65;1.38;;;16.90;97.50;;;;;;5089543;28;20409;-75
2023/05/16 12:05:15;;;;;;;7.00;1.58;;;16.60;99.00;;;;;;5076481;28;20563;-75
2023/05/16 12:07:45;;;;;;;9.00;1.38;;;16.30;99.70;;;;;;5088945;28;20414;-75
2023/05/16 12:10:13;;;;;;;8.60;1.48;;;16.10;99.90;;;;;;5087642;28;20540;-75
2023/05/16 12:12:41;;;;;;;6.20;1.10;;;16.20;99.90;;;;;;5087753;28;20576;-75
2023/05/16 12:15:08;;;;;;;5.60;1.02;;;16.40;99.90;;;;;;5089403;28;20423;-75
2023/05/16 12:17:34;;;;;;;7.22;1.23;;;16.60;99.90;;;;;;5088414;28;20478;-75
2023/05/16 12:20:01;;;;;;;7.60;1.37;;;16.80;99.90;;;;;;5076235;28;20405;-75
2023/05/16 12:22:27;;;;;;;8.27;1.42;;;17.10;99.90;;;;;;5088308;28;20409;-75
2023/05/16 12:24:52;;;;;;;6.20;1.20;;;17.10;99.90;;;;;;5087544;28;20454;-75
2023/05/16 12:27:22;;;;;;;8.50;1.52;;;17.10;99.20;;;;;;5088381;28;20410;-75
2023/05/16 12:29:48;;;;;;;7.82;1.38;;;17.20;99.90;;;;;;5088009;28;20406;-75
2023/05/16 12:32:18;;;;;;;8.17;1.30;;;17.20;99.00;;;;;;5071050;28;20426;-75
2023/05/16 12:34:51;;;;;;;12.38;1.70;;;17.10;98.90;;;;;;5082173;28;20408;-75
2023/05/16 12:37:18;;;;;;;10.05;2.22;;;17.00;98.30;;;;;;5084172;28;20756;-75
2023/05/16 12:39:46;;;;;;;7.50;1.50;;;16.70;98.60;;;;;;5077522;28;20420;-75
2023/05/16 12:42:12;;;;;;;10.25;2.10;;;16.60;99.40;;;;;;5088690;28;20402;-75
2023/05/16 12:44:38;;;;;;;7.63;2.00;;;16.50;99.20;;;;;;5087733;28;20446;-75
2023/05/16 12:47:11;;;;;;;10.03;2.20;;;16.50;99.90;;;;;;5083165;28;20447;-75
2023/05/16 12:49:44;;;;;;;9.50;2.97;;;16.50;99.90;;;;;;5079163;28;20410;-75